Time;durP1;ratioP1;P1;durP2;ratioP2;P2;SDS_P1;SDS_P2;PMS_P1;PMS_P2;Temp;Humidity;BMP_temperature;BMP_pressure;BME280_temperature;BME280_humidity;BME280_pressure;Samples;Min_cycle;Max_cycle;Signal;HPM_P1;HPM_P2
2022/06/10 00:00:51;;;;;;;4.93;2.20;;;11.70;99.90;;;;;;4976552;23;20257;-85
2022/06/10 00:03:20;;;;;;;6.63;2.73;;;11.60;99.90;;;;;;4959989;29;20176;-83
2022/06/10 00:05:48;;;;;;;6.60;1.95;;;11.60;99.90;;;;;;4958717;28;20413;-84
2022/06/10 00:08:17;;;;;;;3.38;2.20;;;11.50;99.90;;;;;;4942871;29;20192;-85
2022/06/10 00:10:49;;;;;;;2.90;2.00;;;11.40;99.90;;;;;;4939695;29;20209;-86
2022/06/10 00:13:15;;;;;;;7.05;2.55;;;;;;;;;;4939923;29;20173;-85
2022/06/10 00:15:41;;;;;;;5.95;2.03;;;;;;;;;;4937946;29;20260;-86
2022/06/10 00:18:07;;;;;;;8.82;2.35;;;11.30;99.90;;;;;;4939051;29;20582;-84
2022/06/10 00:20:34;;;;;;;7.50;2.35;;;;;;;;;;4941076;29;20843;-86
2022/06/10 00:23:00;;;;;;;4.47;2.15;;;;;;;;;;4926871;29;20786;-86
2022/06/10 00:25:26;;;;;;;6.70;2.08;;;11.20;99.90;;;;;;4925669;29;20189;-86
2022/06/10 00:27:52;;;;;;;9.73;2.35;;;11.10;99.90;;;;;;4926753;29;20205;-86
2022/06/10 00:30:24;;;;;;;5.30;2.33;;;11.20;99.90;;;;;;4928284;29;20209;-84
2022/06/10 00:32:49;;;;;;;6.97;2.08;;;11.20;99.90;;;;;;4926685;29;20429;-86
2022/06/10 00:35:19;;;;;;;2.00;1.57;;;11.20;99.90;;;;;;4944961;29;20664;-87
2022/06/10 00:37:45;;;;;;;8.68;2.05;;;;;;;;;;4944910;29;20264;-85
2022/06/10 00:40:27;;;;;;;3.25;1.73;;;11.60;99.90;;;;;;4946615;29;20635;-86
2022/06/10 00:42:56;;;;;;;7.82;2.15;;;11.70;99.90;;;;;;4944603;29;20213;-86
2022/06/10 00:46:00;;;;;;;2.97;1.80;;;11.80;99.90;;;;;;4946932;29;20185;-84
2022/06/10 00:48:47;;;;;;;2.80;1.80;;;11.80;99.90;;;;;;4945869;29;20189;-86
2022/06/10 00:51:20;;;;;;;5.95;1.40;;;11.80;99.90;;;;;;4946710;29;20212;-84
2022/06/10 00:53:50;;;;;;;3.03;1.50;;;11.80;99.90;;;;;;4947055;29;20165;-86
2022/06/10 00:56:24;;;;;;;3.50;1.50;;;11.70;99.90;;;;;;4944889;29;20197;-86
2022/06/10 00:59:01;;;;;;;5.20;2.28;;;11.90;99.90;;;;;;4946087;29;20258;-86
2022/06/10 01:01:27;;;;;;;4.88;1.58;;;;;;;;;;4944009;29;20188;-85
2022/06/10 01:03:54;;;;;;;3.05;1.50;;;11.90;99.90;;;;;;4944963;29;20248;-84
2022/06/10 01:06:21;;;;;;;4.45;1.60;;;;;;;;;;4945188;29;20760;-85
2022/06/10 01:08:48;;;;;;;2.70;1.80;;;11.70;99.90;;;;;;4944007;29;20170;-84
2022/06/10 01:11:14;;;;;;;6.45;1.52;;;;;;;;;;4944655;29;20200;-86
2022/06/10 01:13:40;;;;;;;3.93;1.77;;;;;;;;;;4953760;29;20189;-85
2022/06/10 01:16:49;;;;;;;3.73;2.10;;;11.40;99.90;;;;;;4945302;29;20436;-84
2022/06/10 01:20:02;;;;;;;5.53;1.63;;;11.20;99.90;;;;;;4918148;29;20447;-85
2022/06/10 01:22:49;;;;;;;7.47;2.33;;;11.20;99.90;;;;;;4945641;29;20248;-83
2022/06/10 01:25:43;;;;;;;2.90;1.60;;;11.10;99.90;;;;;;4945573;29;20252;-86
2022/06/10 01:28:25;;;;;;;6.43;2.30;;;11.00;99.90;;;;;;4941501;29;20285;-84
2022/06/10 01:31:17;;;;;;;7.00;2.00;;;11.00;99.90;;;;;;4942727;29;20197;-82
2022/06/10 01:33:54;;;;;;;4.57;2.30;;;10.80;99.90;;;;;;4939769;29;20189;-82
2022/06/10 01:36:25;;;;;;;13.27;2.97;;;10.80;99.90;;;;;;4940884;29;20208;-84
2022/06/10 01:39:03;;;;;;;3.90;2.40;;;10.90;99.90;;;;;;4937759;29;20192;-84
2022/06/10 01:41:33;;;;;;;4.70;2.00;;;10.90;99.90;;;;;;4941638;29;20180;-83
2022/06/10 01:43:59;;;;;;;4.50;2.80;;;10.80;99.90;;;;;;4940958;29;20169;-82
2022/06/10 01:46:37;;;;;;;5.37;2.50;;;10.70;99.90;;;;;;4937988;29;20213;-83
2022/06/10 01:49:29;;;;;;;11.15;2.88;;;10.60;99.90;;;;;;4938245;29;20196;-85
2022/06/10 01:52:02;;;;;;;3.95;3.10;;;10.70;99.90;;;;;;4939381;29;20220;-86
2022/06/10 01:55:08;;;;;;;4.32;2.33;;;10.80;99.90;;;;;;4941489;29;20187;-85
2022/06/10 01:57:41;;;;;;;9.10;3.45;;;10.80;99.90;;;;;;4934436;29;20599;-85
2022/06/10 02:38:50;;;;;;;7.28;4.10;;;10.60;99.90;;;;;;4931536;29;20200;-86
2022/06/10 02:42:04;;;;;;;6.70;2.75;;;10.60;99.90;;;;;;4938633;29;20240;-85
2022/06/10 02:45:01;;;;;;;8.13;3.25;;;10.80;99.90;;;;;;4930936;29;20197;-86
2022/06/10 02:47:42;;;;;;;6.53;3.25;;;10.80;99.90;;;;;;4939279;29;20197;-86
2022/06/10 02:50:09;;;;;;;5.00;2.95;;;10.80;99.90;;;;;;4940198;29;20203;-87
2022/06/10 02:52:36;;;;;;;5.80;3.08;;;;;;;;;;4930183;29;20177;-86
2022/06/10 02:55:05;;;;;;;6.40;4.65;;;10.70;99.90;;;;;;4940056;29;20192;-84
2022/06/10 03:03:26;;;;;;;5.28;2.85;;;10.80;99.90;;;;;;4941789;29;20249;-83
2022/06/10 03:06:27;;;;;;;4.70;2.90;;;10.60;99.90;;;;;;4942063;29;20178;-83
2022/06/10 03:09:03;;;;;;;5.88;2.90;;;10.60;99.90;;;;;;4934594;29;20237;-86
2022/06/10 03:11:50;;;;;;;4.82;2.78;;;10.60;99.90;;;;;;4941618;29;20188;-82
2022/06/10 03:14:30;;;;;;;7.15;4.05;;;11.30;99.90;;;;;;4949455;29;20179;-82
2022/06/10 03:17:20;;;;;;;7.45;3.47;;;10.90;99.90;;;;;;4941049;29;20231;-85
2022/06/10 03:20:06;;;;;;;5.10;3.20;;;11.20;99.90;;;;;;4939815;29;20189;-82
2022/06/10 03:22:52;;;;;;;4.85;3.25;;;10.60;99.90;;;;;;4940794;29;20910;-83
2022/06/10 03:25:24;;;;;;;4.60;3.15;;;10.70;99.90;;;;;;4943404;29;20546;-84
2022/06/10 03:28:23;;;;;;;9.10;3.28;;;10.70;99.90;;;;;;4941856;29;20220;-85
2022/06/10 03:31:02;;;;;;;10.02;3.88;;;10.70;99.90;;;;;;4939172;29;20284;-82
2022/06/10 03:33:30;;;;;;;5.43;3.15;;;10.60;99.90;;;;;;4940407;29;20182;-84
2022/06/10 03:36:06;;;;;;;4.40;3.13;;;10.60;99.90;;;;;;4941790;29;20193;-83
2022/06/10 03:38:37;;;;;;;8.82;3.60;;;10.60;99.90;;;;;;4935781;29;21805;-84
2022/06/10 03:41:04;;;;;;;12.38;4.82;;;;;;;;;;4936802;29;20637;-83
2022/06/10 03:43:39;;;;;;;6.63;3.83;;;10.60;99.90;;;;;;4944479;29;20198;-85
2022/06/10 03:46:10;;;;;;;8.60;3.75;;;10.70;99.90;;;;;;4948776;29;20208;-83
2022/06/10 03:48:40;;;;;;;8.68;4.05;;;10.80;99.90;;;;;;4946102;29;20181;-86
2022/06/10 03:51:51;;;;;;;7.57;3.63;;;11.00;99.90;;;;;;4936064;29;20632;-86
2022/06/10 03:54:19;;;;;;;5.63;2.80;;;11.20;99.90;;;;;;4936425;29;20191;-84
2022/06/10 03:56:46;;;;;;;4.75;3.00;;;11.30;99.90;;;;;;4935454;29;20197;-82
2022/06/10 03:59:12;;;;;;;5.40;3.40;;;;;;;;;;4941333;29;20208;-82
2022/06/10 04:01:38;;;;;;;6.20;3.38;;;;;;;;;;4944212;29;20181;-81
2022/06/10 04:04:04;;;;;;;4.88;3.10;;;11.60;99.90;;;;;;4942704;29;20332;-86
2022/06/10 04:06:31;;;;;;;5.68;2.85;;;;;;;;;;4944383;29;20209;-84
2022/06/10 04:08:57;;;;;;;8.60;3.58;;;11.90;99.90;;;;;;4940203;29;20206;-84
2022/06/10 04:11:23;;;;;;;7.78;3.20;;;;;;;;;;4940761;29;20293;-85
2022/06/10 04:13:49;;;;;;;6.57;4.40;;;;;;;;;;4937273;29;20811;-84
2022/06/10 04:16:15;;;;;;;6.67;3.43;;;;;;;;;;4940208;29;20465;-88
2022/06/10 04:18:41;;;;;;;3.70;2.63;;;;;;;;;;4934219;29;20425;-85
2022/06/10 04:21:07;;;;;;;3.30;2.73;;;;;;;;;;4937514;29;20220;-83
2022/06/10 04:23:33;;;;;;;3.80;3.50;;;;;;;;;;4937843;29;20452;-82
2022/06/10 04:25:59;;;;;;;4.50;2.23;;;20.80;99.90;;;;;;4936413;29;20464;-82
2022/06/10 04:28:25;;;;;;;8.90;2.30;;;;;;;;;;4934268;29;21021;-84
2022/06/10 04:30:55;;;;;;;4.17;2.20;;;22.90;99.90;;;;;;4933705;29;21097;-83
2022/06/10 04:33:23;;;;;;;5.17;2.67;;;24.10;99.90;;;;;;4929199;29;20437;-82
2022/06/10 04:35:50;;;;;;;5.23;2.03;;;25.20;99.90;;;;;;4937838;29;20833;-87
2022/06/10 04:38:24;;;;;;;4.43;2.20;;;25.60;99.90;;;;;;4936751;29;20939;-88
2022/06/10 04:40:50;;;;;;;3.23;1.73;;;25.60;99.90;;;;;;4931080;29;20452;-86
2022/06/10 04:43:16;;;;;;;3.63;2.17;;;26.10;99.90;;;;;;4935161;29;20441;-89
2022/06/10 04:45:51;;;;;;;9.40;2.63;;;26.60;99.60;;;;;;4932113;29;20443;-79
2022/06/10 04:48:18;;;;;;;5.40;2.50;;;;;;;;;;4929914;29;20451;-87
2022/06/10 04:50:45;;;;;;;2.67;1.90;;;28.10;95.80;;;;;;4923969;29;20474;-82
2022/06/10 04:53:11;;;;;;;4.50;2.40;;;;;;;;;;4949026;23;20486;-82
2022/06/10 04:55:37;;;;;;;5.53;2.80;;;;;;;;;;4932280;28;22562;-82
2022/06/10 04:58:03;;;;;;;3.97;2.20;;;31.70;85.70;;;;;;4939841;28;20547;-81
2022/06/10 05:00:35;;;;;;;6.57;2.10;;;32.80;77.40;;;;;;4960259;28;20569;-81
2022/06/10 05:03:02;;;;;;;6.10;2.40;;;;;;;;;;4930140;29;20453;-82
2022/06/10 05:05:29;;;;;;;2.57;1.90;;;;;;;;;;4922176;29;20513;-83
2022/06/10 05:07:55;;;;;;;5.40;2.30;;;;;;;;;;4926312;29;20443;-83
2022/06/10 05:10:21;;;;;;;6.37;3.00;;;;;;;;;;4909519;29;20504;-84
2022/06/10 05:12:47;;;;;;;3.60;3.30;;;;;;;;;;4917275;29;20486;-85
2022/06/10 05:15:14;;;;;;;4.53;4.13;;;35.20;56.90;;;;;;4904185;29;20887;-83
2022/06/10 05:17:40;;;;;;;6.10;4.70;;;;;;;;;;4902979;29;20440;-83
2022/06/10 05:20:07;;;;;;;5.90;5.00;;;36.50;54.80;;;;;;4917765;29;20444;-84
2022/06/10 05:22:33;;;;;;;6.23;5.83;;;;;;;;;;4923097;29;20478;-84
2022/06/10 05:24:59;;;;;;;8.77;6.60;;;;;;;;;;4930925;29;20438;-86
2022/06/10 05:27:25;;;;;;;7.80;7.03;;;;;;;;;;4917114;29;20434;-84
2022/06/10 05:29:51;;;;;;;8.73;7.70;;;;;;;;;;4913554;29;20491;-84
2022/06/10 05:32:17;;;;;;;7.20;6.70;;;;;;;;;;4918665;29;20502;-87
2022/06/10 05:34:47;;;;;;;8.30;7.60;;;;;;;;;;4911934;29;20476;-82
2022/06/10 05:37:18;;;;;;;8.63;7.80;;;36.60;46.60;;;;;;4917841;29;20443;-83
2022/06/10 05:39:44;;;;;;;8.80;8.30;;;;;;;;;;4935001;28;20557;-85
2022/06/10 05:42:10;;;;;;;9.93;9.20;;;;;;;;;;4914459;29;20747;-87
2022/06/10 05:44:40;;;;;;;10.17;9.27;;;37.90;47.10;;;;;;4918993;29;20539;-83
2022/06/10 05:47:12;;;;;;;10.63;9.77;;;39.10;44.80;;;;;;4922392;29;22064;-86
2022/06/10 05:49:42;;;;;;;11.13;10.50;;;38.70;44.10;;;;;;4917349;29;20474;-85
2022/06/10 05:52:10;;;;;;;12.23;11.00;;;39.40;43.50;;;;;;4919012;29;20464;-85
2022/06/10 05:54:36;;;;;;;11.20;10.37;;;;;;;;;;4921997;29;20528;-86
2022/06/10 05:57:02;;;;;;;11.90;11.20;;;;;;;;;;4910762;29;20441;-85
2022/06/10 05:59:29;;;;;;;12.07;11.53;;;;;;;;;;4914415;29;20468;-85
2022/06/10 06:01:55;;;;;;;13.70;13.00;;;;;;;;;;4918273;29;20449;-87
2022/06/10 06:04:21;;;;;;;12.57;11.60;;;;;;;;;;4929340;23;20467;-84
2022/06/10 06:06:47;;;;;;;9.47;8.90;;;;;;;;;;4927359;29;20472;-85
2022/06/10 06:09:14;;;;;;;10.27;9.40;;;42.10;37.40;;;;;;4931501;29;20204;-85
2022/06/10 06:11:40;;;;;;;15.57;14.03;;;;;;;;;;4929888;29;20436;-84
2022/06/10 06:14:06;;;;;;;6.03;5.53;;;;;;;;;;4932695;29;20476;-84
2022/06/10 06:16:32;;;;;;;10.80;9.77;;;;;;;;;;4927519;29;20441;-85
2022/06/10 06:18:58;;;;;;;7.97;7.10;;;;;;;;;;4927792;29;20464;-85
2022/06/10 06:21:24;;;;;;;7.40;6.60;;;;;;;;;;4929026;29;20433;-85
2022/06/10 06:23:50;;;;;;;6.77;6.00;;;;;;;;;;4920996;29;20221;-85
2022/06/10 06:26:16;;;;;;;8.63;7.40;;;;;;;;;;4924924;29;20205;-84
2022/06/10 06:28:43;;;;;;;7.10;6.57;;;;;;;;;;4918493;29;20429;-84
2022/06/10 06:31:09;;;;;;;9.60;8.80;;;41.10;33.40;;;;;;4921022;29;20509;-85
2022/06/10 06:33:35;;;;;;;6.40;5.80;;;39.60;42.70;;;;;;4924281;29;21306;-84
2022/06/10 06:36:01;;;;;;;6.33;5.80;;;;;;;;;;4929770;29;20459;-84
2022/06/10 06:38:28;;;;;;;8.80;7.50;;;;;;;;;;4928085;29;20196;-84
2022/06/10 06:40:54;;;;;;;13.70;12.70;;;;;;;;;;4929457;29;21235;-84
2022/06/10 06:43:20;;;;;;;13.83;12.83;;;;;;;;;;4925321;29;20485;-84
2022/06/10 06:45:46;;;;;;;12.77;11.90;;;;;;;;;;4927299;29;20517;-84
2022/06/10 06:48:12;;;;;;;13.53;12.27;;;;;;;;;;4930169;29;20435;-84
2022/06/10 06:50:48;;;;;;;13.93;12.97;;;36.70;39.80;;;;;;4923145;29;20480;-84
2022/06/10 06:53:14;;;;;;;17.17;13.53;;;;;;;;;;4929526;29;20488;-84
2022/06/10 06:55:41;;;;;;;12.60;11.90;;;35.50;49.30;;;;;;4924701;29;20446;-84
2022/06/10 06:58:10;;;;;;;12.53;11.90;;;36.30;40.70;;;;;;4922732;29;20445;-84
2022/06/10 07:00:36;;;;;;;13.10;12.10;;;;;;;;;;4922320;29;20458;-84
2022/06/10 07:03:03;;;;;;;12.17;11.27;;;37.00;39.60;;;;;;4923550;29;20493;-83
2022/06/10 07:05:29;;;;;;;12.60;11.87;;;;;;;;;;4923373;29;20468;-83
2022/06/10 07:07:55;;;;;;;14.00;12.83;;;;;;;;;;4921796;29;20432;-84
2022/06/10 07:10:21;;;;;;;14.83;14.03;;;;;;;;;;4928573;29;20472;-84
2022/06/10 07:12:47;;;;;;;19.07;18.00;;;;;;;;;;4922464;29;20438;-83
2022/06/10 07:15:13;;;;;;;21.60;20.33;;;;;;;;;;4924439;29;20597;-84
2022/06/10 07:17:39;;;;;;;19.00;17.53;;;;;;;;;;4920411;29;20806;-83
2022/06/10 07:20:06;;;;;;;23.53;22.10;;;39.00;37.50;;;;;;4924707;29;20515;-84
2022/06/10 07:22:32;;;;;;;19.60;18.33;;;;;;;;;;4927183;29;20972;-84
2022/06/10 07:24:58;;;;;;;17.90;16.80;;;;;;;;;;4922582;29;20448;-84
2022/06/10 07:27:24;;;;;;;17.73;16.73;;;;;;;;;;4928544;29;20517;-84
2022/06/10 07:29:50;;;;;;;18.37;17.17;;;;;;;;;;4922935;29;22832;-83
2022/06/10 07:32:17;;;;;;;17.90;16.70;;;;;;;;;;4919554;29;20437;-84
2022/06/10 07:34:43;;;;;;;21.23;20.03;;;;;;;;;;4921534;29;20503;-84
2022/06/10 07:37:09;;;;;;;22.03;20.73;;;;;;;;;;4925140;29;21785;-84
2022/06/10 07:39:35;;;;;;;23.97;22.67;;;39.60;35.20;;;;;;4925005;29;20455;-84
2022/06/10 07:42:01;;;;;;;24.60;23.47;;;39.00;35.80;;;;;;4922035;29;20941;-84
2022/06/10 07:44:30;;;;;;;24.23;22.93;;;40.40;38.20;;;;;;4925063;29;21559;-83
2022/06/10 07:46:57;;;;;;;23.43;22.13;;;41.40;34.10;;;;;;4919302;29;20445;-84
2022/06/10 07:49:23;;;;;;;23.27;21.87;;;;;;;;;;4922536;29;20513;-85
2022/06/10 07:51:49;;;;;;;26.03;24.70;;;;;;;;;;4918459;29;20607;-84
2022/06/10 07:54:15;;;;;;;24.00;23.00;;;;;;;;;;4916979;29;20461;-83
2022/06/10 07:56:41;;;;;;;23.37;21.67;;;;;;;;;;4920710;29;20468;-84
2022/06/10 07:59:08;;;;;;;17.13;15.87;;;;;;;;;;4924302;29;20444;-84
2022/06/10 08:01:34;;;;;;;19.43;18.13;;;;;;;;;;4929220;29;20574;-84
2022/06/10 08:04:00;;;;;;;18.20;17.00;;;;;;;;;;4926105;29;20466;-84
2022/06/10 08:06:28;;;;;;;14.77;13.73;;;37.00;37.50;;;;;;4927397;29;20455;-83
2022/06/10 08:08:54;;;;;;;15.53;14.63;;;;;;;;;;4923804;29;20493;-85
2022/06/10 08:11:21;;;;;;;16.37;15.03;;;;;;;;;;4932670;29;20556;-85
2022/06/10 08:13:47;;;;;;;16.43;15.30;;;;;;;;;;4931089;29;20453;-85
2022/06/10 08:16:14;;;;;;;14.80;13.90;;;37.00;39.20;;;;;;4935673;29;20464;-84
2022/06/10 08:18:40;;;;;;;15.70;14.47;;;37.60;37.80;;;;;;4929991;29;20501;-85
2022/06/10 08:23:52;;;;;;;10.80;10.00;;;41.50;35.20;;;;;;4926889;29;20973;-84
2022/06/10 08:26:20;;;;;;;22.30;21.10;;;40.50;32.80;;;;;;4933282;29;20440;-84
2022/06/10 08:28:47;;;;;;;8.00;7.27;;;38.10;34.80;;;;;;4929761;29;20517;-84
2022/06/10 08:31:13;;;;;;;16.90;15.70;;;;;;;;;;4931085;29;20454;-85
2022/06/10 08:33:39;;;;;;;17.80;16.50;;;;;;;;;;4938245;29;20517;-84
2022/06/10 08:36:06;;;;;;;17.73;16.13;;;36.30;38.90;;;;;;4930135;29;20452;-84
2022/06/10 08:38:32;;;;;;;16.03;14.60;;;;;;;;;;4928764;29;20583;-85
2022/06/10 08:41:23;;;;;;;17.87;16.50;;;34.70;40.20;;;;;;4928156;29;20468;-84
2022/06/10 08:43:59;;;;;;;17.47;16.43;;;33.00;47.20;;;;;;4928794;29;20458;-84
2022/06/10 08:46:41;;;;;;;15.00;13.87;;;;;;;;;;4929962;29;20456;-84
2022/06/10 08:49:29;;;;;;;17.30;16.33;;;36.60;39.90;;;;;;4927235;29;20546;-85
2022/06/10 08:52:09;;;;;;;14.80;13.80;;;38.50;38.50;;;;;;4927512;29;20466;-84
2022/06/10 08:54:49;;;;;;;17.53;16.37;;;38.30;44.80;;;;;;4930850;29;20453;-84
2022/06/10 08:57:32;;;;;;;20.57;19.40;;;38.80;37.10;;;;;;4926408;29;20440;-83
2022/06/10 09:00:00;;;;;;;21.73;20.53;;;38.40;35.70;;;;;;4927056;29;20418;-84
2022/06/10 09:02:26;;;;;;;21.57;20.50;;;;;;;;;;4928936;29;20781;-84
2022/06/10 09:04:54;;;;;;;16.23;15.17;;;;;;;;;;4927025;29;20491;-84
2022/06/10 09:07:43;;;;;;;15.70;14.40;;;34.80;41.00;;;;;;4927128;29;20451;-84
2022/06/10 09:10:24;;;;;;;14.53;13.77;;;36.30;38.50;;;;;;4923048;29;20608;-85
2022/06/10 09:13:08;;;;;;;16.27;15.20;;;37.40;38.50;;;;;;4925055;29;21347;-86
2022/06/10 09:15:41;;;;;;;16.27;15.27;;;39.30;36.50;;;;;;4929103;29;20464;-84
2022/06/10 09:18:15;;;;;;;16.37;14.80;;;39.90;35.20;;;;;;4923548;29;20483;-84
2022/06/10 09:21:14;;;;;;;16.47;15.40;;;35.70;37.00;;;;;;4924145;29;20458;-83
2022/06/10 09:23:44;;;;;;;15.67;14.20;;;33.50;40.20;;;;;;4922037;29;20477;-84
2022/06/10 09:26:15;;;;;;;12.53;11.87;;;35.00;40.90;;;;;;4925388;29;20445;-84
2022/06/10 09:28:42;;;;;;;16.97;15.70;;;;;;;;;;4924966;29;20450;-84
2022/06/10 09:31:22;;;;;;;15.43;14.23;;;33.10;40.00;;;;;;4924162;29;20499;-84
2022/06/10 09:34:02;;;;;;;13.27;12.37;;;30.80;44.50;;;;;;4922610;29;20457;-83
2022/06/10 09:36:45;;;;;;;12.63;11.53;;;30.00;45.10;;;;;;4927713;29;20439;-84
2022/06/10 09:42:39;;;;;;;10.13;9.33;;;32.50;48.90;;;;;;4921102;29;20544;-83
2022/06/10 09:45:20;;;;;;;10.27;9.53;;;33.20;46.80;;;;;;4920663;29;20478;-84
2022/06/10 09:47:46;;;;;;;10.20;9.37;;;;;;;;;;4920553;29;21012;-84
2022/06/10 09:50:33;;;;;;;10.10;9.40;;;31.30;50.10;;;;;;4927166;29;20551;-81
2022/06/10 09:53:19;;;;;;;10.93;8.87;;;31.30;47.30;;;;;;4925688;29;20474;-81
2022/06/10 09:56:09;;;;;;;9.37;8.57;;;32.30;44.90;;;;;;4928240;29;20460;-85
2022/06/10 09:58:51;;;;;;;10.33;9.43;;;33.40;44.90;;;;;;4918695;29;20473;-86
2022/06/10 10:01:38;;;;;;;10.73;10.10;;;35.10;43.40;;;;;;4925301;29;20439;-86
2022/06/10 10:04:32;;;;;;;11.43;10.50;;;36.80;42.90;;;;;;4922352;29;20471;-85
2022/06/10 10:07:06;;;;;;;12.20;11.30;;;37.60;46.50;;;;;;4921485;29;20448;-86
2022/06/10 10:09:45;;;;;;;12.40;11.80;;;37.70;38.10;;;;;;4919736;29;20439;-86
2022/06/10 10:12:33;;;;;;;13.70;12.80;;;38.50;39.00;;;;;;4920476;29;20429;-85
2022/06/10 10:15:05;;;;;;;14.10;13.20;;;38.90;35.60;;;;;;4921504;29;20441;-85
2022/06/10 10:17:33;;;;;;;15.40;14.30;;;38.70;53.70;;;;;;4921863;29;20445;-86
2022/06/10 10:20:08;;;;;;;15.23;14.27;;;38.70;41.50;;;;;;4924027;29;20486;-86
2022/06/10 10:23:08;;;;;;;17.63;16.30;;;38.70;36.10;;;;;;4925093;29;20475;-86
2022/06/10 10:25:34;;;;;;;16.63;15.63;;;38.70;44.00;;;;;;4922229;29;20841;-85
2022/06/10 10:28:10;;;;;;;18.10;17.17;;;38.00;37.30;;;;;;4921668;29;20465;-86
2022/06/10 10:30:42;;;;;;;18.17;16.73;;;36.60;37.70;;;;;;4922478;29;20222;-85
2022/06/10 10:33:12;;;;;;;15.60;14.47;;;34.60;38.00;;;;;;4920541;29;20452;-84
2022/06/10 10:35:43;;;;;;;14.90;13.63;;;30.90;41.70;;;;;;4923167;29;20450;-84
2022/06/10 10:38:26;;;;;;;17.13;10.87;;;29.20;46.00;;;;;;4925989;29;20566;-85
2022/06/10 10:40:52;;;;;;;9.17;8.60;;;;;;;;;;4937263;28;20445;-84
2022/06/10 10:43:28;;;;;;;9.70;7.70;;;27.50;51.70;;;;;;4919725;29;20470;-84
2022/06/10 10:46:07;;;;;;;6.00;5.50;;;27.50;52.50;;;;;;4913000;29;20444;-84
2022/06/10 10:48:42;;;;;;;6.90;5.33;;;27.30;54.70;;;;;;4916075;29;20476;-85
2022/06/10 10:51:11;;;;;;;9.93;4.67;;;26.80;56.50;;;;;;4921799;29;20487;-85
2022/06/10 10:53:41;;;;;;;7.13;3.70;;;26.70;56.80;;;;;;4920149;29;20457;-84
2022/06/10 10:56:08;;;;;;;5.70;3.77;;;26.80;61.20;;;;;;4922674;23;20532;-81
2022/06/10 10:58:46;;;;;;;6.33;3.83;;;26.80;56.00;;;;;;4934293;28;20443;-82
2022/06/10 11:01:43;;;;;;;6.70;3.87;;;26.40;54.80;;;;;;4928931;28;20912;-82
2022/06/10 11:03:58;;;;;;;6.90;4.23;;;26.30;53.50;;;;;;4935220;28;20483;-81
2022/06/10 11:06:31;;;;;;;7.80;4.50;;;26.20;53.70;;;;;;4934445;28;20597;-80
2022/06/10 11:09:00;;;;;;;5.37;2.70;;;26.20;57.10;;;;;;4935778;28;20178;-81
2022/06/10 11:11:34;;;;;;;5.33;2.93;;;26.10;58.80;;;;;;4930670;28;20975;-80
2022/06/10 11:14:04;;;;;;;5.73;3.60;;;26.30;57.70;;;;;;4933684;28;20541;-81
2022/06/10 11:16:54;;;;;;;6.40;3.67;;;26.80;57.00;;;;;;4938448;28;20474;-82
2022/06/10 11:19:40;;;;;;;15.13;4.07;;;26.60;57.40;;;;;;4929483;28;20448;-83
2022/06/10 11:22:19;;;;;;;5.53;2.60;;;26.70;59.40;;;;;;4931294;28;20487;-82
2022/06/10 11:24:52;;;;;;;11.60;3.03;;;27.10;60.10;;;;;;4934249;28;20490;-83
2022/06/10 11:27:27;;;;;;;4.53;3.27;;;26.30;57.80;;;;;;4934667;28;20466;-82
2022/06/10 11:30:14;;;;;;;3.80;3.17;;;26.20;59.30;;;;;;4934968;28;20461;-82
2022/06/10 11:32:48;;;;;;;4.60;2.13;;;25.70;62.40;;;;;;4940407;28;20445;-81
2022/06/10 11:35:26;;;;;;;3.80;2.43;;;25.00;65.40;;;;;;4935731;28;20967;-83
2022/06/10 11:37:56;;;;;;;6.47;2.50;;;25.00;67.30;;;;;;4937806;28;20451;-84
2022/06/10 11:40:35;;;;;;;8.13;2.87;;;25.30;63.50;;;;;;4936664;28;20998;-81
2022/06/10 11:43:13;;;;;;;4.67;2.43;;;25.30;68.40;;;;;;4928515;28;20457;-81
2022/06/10 11:45:47;;;;;;;4.97;2.60;;;25.30;62.10;;;;;;4935821;28;20471;-84
2022/06/10 11:48:18;;;;;;;6.10;2.70;;;25.20;63.60;;;;;;4935629;28;20447;-84
2022/06/10 11:51:01;;;;;;;6.50;2.70;;;25.10;65.50;;;;;;4932766;28;20464;-81
2022/06/10 11:54:08;;;;;;;8.07;2.87;;;25.50;69.60;;;;;;4934744;28;20465;-83
2022/06/10 11:59:45;;;;;;;6.40;2.30;;;25.80;62.10;;;;;;4941642;28;21541;-83
2022/06/10 12:02:30;;;;;;;6.33;2.33;;;25.80;63.20;;;;;;4944322;28;20438;-83
2022/06/10 12:05:09;;;;;;;5.20;2.53;;;26.20;60.50;;;;;;4941987;28;20443;-83
2022/06/10 12:07:43;;;;;;;3.60;2.40;;;26.20;61.00;;;;;;4945601;28;20474;-84
2022/06/10 12:10:16;;;;;;;3.47;2.57;;;26.10;61.10;;;;;;4944180;28;20461;-81
2022/06/10 12:12:44;;;;;;;3.37;2.40;;;25.80;61.20;;;;;;4946871;28;20537;-83
2022/06/10 12:15:23;;;;;;;7.23;2.70;;;25.60;60.20;;;;;;4942950;28;20434;-80
2022/06/10 12:17:52;;;;;;;5.40;2.60;;;25.60;61.20;;;;;;4941284;28;20446;-82
2022/06/10 12:20:41;;;;;;;4.53;2.70;;;25.80;69.10;;;;;;4943827;28;20900;-84
2022/06/10 12:23:24;;;;;;;5.03;2.77;;;25.80;59.60;;;;;;4942120;28;20796;-84
2022/06/10 12:26:06;;;;;;;4.07;2.40;;;26.00;58.20;;;;;;4940365;28;20476;-85
2022/06/10 12:28:32;;;;;;;4.53;2.50;;;;;;;;;;4942147;28;20524;-80
2022/06/10 12:31:19;;;;;;;4.60;2.50;;;26.20;58.80;;;;;;4944155;28;21083;-81
2022/06/10 12:33:57;;;;;;;8.43;2.50;;;26.50;61.60;;;;;;4943224;28;20472;-82
2022/06/10 12:36:31;;;;;;;5.60;3.17;;;27.60;57.90;;;;;;4944844;28;20938;-82
2022/06/10 12:38:59;;;;;;;5.97;2.50;;;27.30;58.80;;;;;;4956738;28;20480;-83
2022/06/10 12:41:37;;;;;;;5.37;2.70;;;27.10;57.50;;;;;;4944900;28;20526;-82
2022/06/10 12:44:09;;;;;;;4.03;3.13;;;26.70;57.70;;;;;;4940137;28;20494;-80
2022/06/10 12:46:54;;;;;;;4.37;3.43;;;26.80;57.90;;;;;;4935695;28;20858;-82
2022/06/10 12:49:29;;;;;;;3.87;2.83;;;27.10;56.70;;;;;;4943251;28;20730;-88
2022/06/10 12:52:33;;;;;;;4.03;3.17;;;27.10;56.60;;;;;;4946370;28;20779;-86
2022/06/10 12:55:03;;;;;;;4.13;2.97;;;27.10;55.10;;;;;;4909661;28;20453;-84
2022/06/10 12:57:39;;;;;;;8.40;3.50;;;27.30;56.20;;;;;;4949006;28;21076;-83
2022/06/10 13:00:27;;;;;;;4.37;3.20;;;27.10;55.90;;;;;;4945333;28;20562;-86
2022/06/10 13:03:16;;;;;;;6.57;2.70;;;27.30;57.60;;;;;;4944738;28;20440;-87
2022/06/10 13:05:45;;;;;;;3.53;2.43;;;27.30;58.50;;;;;;4947015;28;20828;-86
2022/06/10 13:08:35;;;;;;;5.87;2.70;;;26.90;58.30;;;;;;4942611;28;20432;-86
2022/06/10 13:11:02;;;;;;;5.73;2.63;;;26.90;57.60;;;;;;4943334;28;20467;-87
2022/06/10 13:13:28;;;;;;;4.53;2.33;;;26.90;58.00;;;;;;4940863;28;20500;-86
2022/06/10 13:16:15;;;;;;;4.63;2.93;;;26.40;58.00;;;;;;4946748;28;20468;-86
2022/06/10 13:18:41;;;;;;;11.53;3.17;;;;;;;;;;4941511;28;20431;-84
2022/06/10 13:21:11;;;;;;;4.13;2.40;;;26.30;59.20;;;;;;4956658;28;20453;-85
2022/06/10 13:24:08;;;;;;;2.63;2.43;;;26.30;59.70;;;;;;4956724;28;20444;-85
2022/06/10 13:26:34;;;;;;;8.77;2.73;;;25.50;58.10;;;;;;4945556;28;20531;-85
2022/06/10 13:29:17;;;;;;;3.97;2.90;;;25.50;60.60;;;;;;4942255;28;20457;-85
2022/06/10 13:31:57;;;;;;;7.60;3.83;;;25.60;59.40;;;;;;4948872;28;20316;-83
2022/06/10 13:34:32;;;;;;;7.33;2.70;;;25.60;59.90;;;;;;4943983;28;20949;-85
2022/06/10 13:37:14;;;;;;;4.07;3.63;;;25.30;57.70;;;;;;4933145;28;20498;-85
2022/06/10 13:39:44;;;;;;;10.73;2.50;;;25.10;56.40;;;;;;4938389;28;21053;-84
2022/06/10 13:42:53;;;;;;;7.10;2.30;;;25.10;57.00;;;;;;4937351;28;20433;-84
2022/06/10 13:45:30;;;;;;;7.57;2.77;;;24.70;59.90;;;;;;4888950;29;20527;-84
2022/06/10 13:48:02;;;;;;;3.90;2.70;;;24.70;61.40;;;;;;4916277;28;20532;-85
2022/06/10 13:53:06;;;;;;;3.73;2.30;;;25.40;58.90;;;;;;4925815;28;20447;-84
2022/06/10 13:55:45;;;;;;;4.53;3.20;;;25.70;57.40;;;;;;4929422;28;20559;-85
2022/06/10 13:58:15;;;;;;;8.73;3.50;;;;;;;;;;4934003;29;20487;-85
2022/06/10 14:00:47;;;;;;;2.80;2.50;;;26.60;55.10;;;;;;4932999;28;20450;-84
2022/06/10 14:03:34;;;;;;;3.63;2.77;;;26.50;57.90;;;;;;4936126;28;21077;-85
2022/06/10 14:06:03;;;;;;;10.23;3.33;;;27.00;54.90;;;;;;4927519;28;20542;-83
2022/06/10 14:08:35;;;;;;;8.83;4.27;;;26.90;56.90;;;;;;4955683;28;20447;-83
2022/06/10 14:11:17;;;;;;;6.47;3.57;;;26.90;57.30;;;;;;4949783;28;20528;-84
2022/06/10 14:13:57;;;;;;;10.93;4.23;;;26.70;56.60;;;;;;4933497;28;20811;-84
2022/06/10 14:16:24;;;;;;;6.90;3.00;;;26.80;56.10;;;;;;4944887;28;20498;-84
2022/06/10 14:18:52;;;;;;;4.90;3.60;;;26.70;56.60;;;;;;4927085;28;20926;-86
2022/06/10 14:21:18;;;;;;;3.43;2.80;;;27.40;57.30;;;;;;4935915;28;20512;-85
2022/06/10 14:24:04;;;;;;;4.70;2.63;;;26.90;58.50;;;;;;4940232;28;20489;-84
2022/06/10 14:26:32;;;;;;;3.33;3.13;;;26.60;55.20;;;;;;4932438;28;20544;-83
2022/06/10 14:29:17;;;;;;;3.07;2.80;;;26.60;52.60;;;;;;4943918;28;20454;-83
2022/06/10 14:31:49;;;;;;;6.00;3.47;;;27.20;52.50;;;;;;4957054;28;21001;-85
2022/06/10 14:34:22;;;;;;;6.67;3.30;;;26.30;52.80;;;;;;4941916;28;20527;-84
2022/06/10 14:37:04;;;;;;;3.70;2.73;;;26.40;53.40;;;;;;4941172;28;21026;-84
2022/06/10 14:39:31;;;;;;;3.03;2.30;;;26.40;53.70;;;;;;4940053;28;20458;-85